Vores vejrinfo findes også på:

UK Metoffice

European Weather Network

Weather Underground



Stationer ""tæt på"" METAR Rapporter

   
EKEB - Esbjerg, Denmark
Afstand fra denne vejrstation: NNV 29 km
Opdateret: 18-07-2019 09:20
Mest overskyet  
Mest overskyet  
   Vind fra: SSØ 2.6 m/s
Vind fra: SSØ 2.6 m/s
Temperatur: 16°C
Dugpunkt: 13°C
Luftfugtighed: 83%
Barometer: 1012 hPa
Skyer: Mest overskyet
Sigtbarhed: More than 10 km
Sky detaljer: Mest overskyet 900 ft
EKEB 180720Z AUTO 16005KT 130V210 9999 BKN009/// 16/13 Q1012
EKSP - Skrydstrup(Dan-A, Denmark
Afstand fra denne vejrstation: Ø 35 km
Opdateret: 18-07-2019 09:20
Få skyer  
Få skyer  
   Vind fra: Syd 3.6 m/s
Vind fra: Syd 3.6 m/s
Temperatur: 18°C
Dugpunkt: 12°C
Luftfugtighed: 68%
Barometer: 1012 hPa
Skyer: Få skyer
Sigtbarhed: More than 10 km
Sky detaljer: Få skyer 1500 ft
EKSP 180720Z 17007KT 120V200 9999 FEW015 18/12 Q1012 NOSIG
EKBI - Billund Airport, Denmark
Afstand fra denne vejrstation: NNØ 56 km
Opdateret: 18-07-2019 09:20
Delvis overskyet  
Delvis overskyet  
   Vind fra: Syd 3.1 m/s
Vind fra: Syd 3.1 m/s
Temperatur: 15°C
Dugpunkt: 14°C
Luftfugtighed: 94%
Barometer: 1012 hPa
Skyer: Delvis overskyet
Sigtbarhed: More than 10 km
Sky detaljer: Delvis overskyet 600 ft
EKBI 180720Z AUTO 17006KT 140V200 9999 SCT006/// 15/14 Q1012
EKSB - Sonderborg Airpo, Denmark
Afstand fra denne vejrstation: ØSØ 76 km
Opdateret: 18-07-2019 09:20
Få skyer  
Få skyer  
   Vind fra: SØ 3.1 m/s
Vind fra: SØ 3.1 m/s
Temperatur: 18°C
Dugpunkt: 14°C
Luftfugtighed: 78%
Barometer: 1012 hPa
Skyer: Få skyer
Sigtbarhed: More than 10 km
Sky detaljer: Få skyer 1200 ft
EKSB 180720Z 14006KT 100V200 9999 FEW012 18/14 Q1012
EKVD - Vamdrup (aut/man), Denmark
Afstand fra denne vejrstation: ØNØ 41 km
Opdateret: 18-07-2019 08:50
Klart  
Klart  
   Vind fra: SSØ 3.1 m/s
Vind fra: SSØ 3.1 m/s
Temperatur: 16°C
Dugpunkt: 14°C
Luftfugtighed: 88%
Barometer: 1012 hPa
Sigtbarhed: More than 10 km
Sky detaljer: Klart
EKVD 180650Z 16006KT 130V200 CAVOK 16/14 Q1012
EDXW - Westerland/Sylt, Germany
Afstand fra denne vejrstation: SSV 47 km
Opdateret: 17-07-2019 19:50
Data er IKKE opdaterede!
Delvis overskyet  
Delvis overskyet  
   Vind fra: Vest 3.6 m/s
Vind fra: Vest 3.6 m/s
Temperatur: 16°C
Dugpunkt: 14°C
Luftfugtighed: 88%
Barometer: 1014 hPa
Skyer: Delvis overskyet
Sigtbarhed: More than 10 km
Sky detaljer: Delvis overskyet 1200 ft
EDXW 171750Z 26007KT 9999 SCT012 16/14 Q1014

Original script by  Saratoga-weather.org Adapted for the template by  Weerstation Leuven

Der anvendes følgende:

Vejrstation
Davis VP2

Vejrprogram
Meteohub

Server
RaspberryPI 3 model B

Davis VP2

Meteohub

RaspberryPI 3 model B